createdAt,value
2022-09-18T00:01:24.921Z,1.43
2022-09-18T00:03:57.377Z,1.40
2022-09-18T00:06:27.372Z,1.20
2022-09-18T00:08:57.580Z,1.20
2022-09-18T00:11:27.018Z,1.40
2022-09-18T00:13:54.424Z,1.50
2022-09-18T00:16:25.855Z,1.40
2022-09-18T00:18:53.675Z,1.93
2022-09-18T00:21:25.619Z,1.57
2022-09-18T00:23:55.603Z,1.20
2022-09-18T00:26:25.758Z,1.40
2022-09-18T00:28:54.436Z,1.50
2022-09-18T00:31:29.830Z,1.63
2022-09-18T00:33:59.660Z,1.40
2022-09-18T00:36:27.203Z,1.40
2022-09-18T00:38:57.086Z,1.40
2022-09-18T00:41:28.011Z,1.37
2022-09-18T00:44:16.230Z,1.77
2022-09-18T00:46:46.141Z,1.30
2022-09-18T00:49:24.633Z,1.53
2022-09-18T00:51:55.407Z,1.67
2022-09-18T00:54:30.187Z,1.00
2022-09-18T00:57:01.914Z,1.50
2022-09-18T00:59:31.998Z,1.40
2022-09-18T01:02:00.302Z,1.50
2022-09-18T01:04:29.570Z,1.57
2022-09-18T01:07:20.788Z,1.60
2022-09-18T01:10:09.176Z,1.50
2022-09-18T01:13:13.679Z,1.53
2022-09-18T01:16:19.915Z,1.83
2022-09-18T01:19:28.224Z,1.93
2022-09-18T01:22:19.772Z,1.27
2022-09-18T01:24:56.819Z,1.70
2022-09-18T01:27:42.784Z,1.40
2022-09-18T01:30:12.033Z,1.67
2022-09-18T01:32:54.197Z,1.50
2022-09-18T01:35:42.040Z,1.40
2022-09-18T01:38:48.465Z,1.60
2022-09-18T01:41:23.898Z,1.50
2022-09-18T01:44:13.970Z,1.37
2022-09-18T01:46:44.520Z,1.50
2022-09-18T01:49:19.830Z,2.10
2022-09-18T01:51:53.220Z,1.40
2022-09-18T01:54:24.551Z,1.77
2022-09-18T01:57:40.932Z,1.30
2022-09-18T02:00:12.562Z,1.60
2022-09-18T02:02:57.719Z,1.73
2022-09-18T02:05:32.480Z,1.70
2022-09-18T02:08:18.315Z,1.80
2022-09-18T02:11:18.916Z,1.97
2022-09-18T02:13:53.503Z,1.50
2022-09-18T02:16:53.167Z,1.50
2022-09-18T02:19:25.982Z,1.30
2022-09-18T02:21:56.079Z,1.40
2022-09-18T02:24:28.549Z,1.40
2022-09-18T02:26:57.234Z,1.70
2022-09-18T02:29:25.262Z,1.90
2022-09-18T02:31:52.735Z,1.73
2022-09-18T02:34:21.239Z,2.00
2022-09-18T02:37:05.271Z,1.50
2022-09-18T02:39:57.891Z,1.83
2022-09-18T02:42:47.612Z,1.77
2022-09-18T02:45:49.882Z,1.60
2022-09-18T02:48:35.491Z,2.07
2022-09-18T02:51:26.668Z,1.30
2022-09-18T02:53:53.655Z,1.87
2022-09-18T02:56:57.270Z,1.70
2022-09-18T02:59:33.334Z,1.80
2022-09-18T03:02:02.125Z,1.70
2022-09-18T03:04:31.871Z,1.90
2022-09-18T03:07:07.495Z,1.47
2022-09-18T03:09:41.015Z,1.67
2022-09-18T03:12:08.883Z,1.73
2022-09-18T03:14:40.899Z,1.90
2022-09-18T03:17:08.023Z,2.30
2022-09-18T03:19:34.923Z,1.80
2022-09-18T03:22:03.063Z,1.57
2022-09-18T03:24:32.791Z,1.90
2022-09-18T03:26:59.798Z,1.50
2022-09-18T03:29:28.917Z,1.97
2022-09-18T03:31:57.150Z,1.83
2022-09-18T03:34:24.410Z,1.90
2022-09-18T03:36:51.436Z,1.73
2022-09-18T03:39:19.263Z,2.00
2022-09-18T03:41:47.411Z,2.00
2022-09-18T03:44:14.396Z,2.07
2022-09-18T03:46:43.433Z,1.87
2022-09-18T03:49:10.584Z,1.87
2022-09-18T03:51:40.023Z,1.90
2022-09-18T03:54:07.804Z,1.93
2022-09-18T03:56:53.101Z,2.20
2022-09-18T03:59:37.335Z,1.90
2022-09-18T04:02:24.886Z,2.10
2022-09-18T04:05:10.707Z,2.00
2022-09-18T04:08:16.214Z,2.10
2022-09-18T04:11:00.207Z,2.13
2022-09-18T04:13:27.751Z,2.07
2022-09-18T04:16:00.450Z,1.97
2022-09-18T04:18:29.409Z,2.07
2022-09-18T04:20:57.663Z,2.13
2022-09-18T04:23:24.782Z,2.33
2022-09-18T04:25:51.941Z,2.40
2022-09-18T04:28:19.013Z,2.67
2022-09-18T04:30:48.234Z,2.40
2022-09-18T04:33:16.263Z,1.87
2022-09-18T04:35:43.810Z,1.90
2022-09-18T04:38:11.780Z,2.27
2022-09-18T04:40:38.774Z,2.33
2022-09-18T04:43:05.849Z,1.80
2022-09-18T04:45:32.903Z,2.00
2022-09-18T04:48:00.075Z,1.80
2022-09-18T04:50:28.523Z,1.80
2022-09-18T04:53:24.696Z,1.63
2022-09-18T04:55:52.166Z,1.73
2022-09-18T04:58:20.995Z,2.00
2022-09-18T05:00:53.357Z,1.43
2022-09-18T05:03:22.602Z,1.63
2022-09-18T05:05:51.568Z,1.90
2022-09-18T05:08:18.638Z,2.03
2022-09-18T05:10:45.931Z,2.00
2022-09-18T05:13:13.898Z,1.70
2022-09-18T05:15:55.174Z,2.67
2022-09-18T05:18:24.619Z,2.23
2022-09-18T05:20:55.135Z,1.83
2022-09-18T05:23:22.469Z,2.20
2022-09-18T05:25:49.813Z,2.13
2022-09-18T05:28:19.283Z,2.30
2022-09-18T05:30:50.201Z,2.10
2022-09-18T05:33:17.548Z,1.97
2022-09-18T05:35:44.784Z,2.60
2022-09-18T05:38:12.080Z,2.10
2022-09-18T05:40:43.490Z,2.40
2022-09-18T05:43:10.653Z,2.40
2022-09-18T05:45:38.266Z,2.17
2022-09-18T05:48:16.997Z,2.50
2022-09-18T05:50:46.049Z,3.07
2022-09-18T05:53:18.088Z,3.10
2022-09-18T05:56:11.267Z,3.20
2022-09-18T05:58:38.678Z,2.93
2022-09-18T06:01:06.280Z,3.00
2022-09-18T06:03:52.148Z,2.80
2022-09-18T06:06:21.002Z,3.23
2022-09-18T06:08:49.419Z,3.80
2022-09-18T06:11:16.529Z,2.93
2022-09-18T06:13:44.514Z,2.87
2022-09-18T06:16:13.195Z,2.87
2022-09-18T06:18:52.466Z,3.00
2022-09-18T06:21:21.278Z,3.10
2022-09-18T06:23:48.562Z,2.93
2022-09-18T06:26:24.573Z,3.50
2022-09-18T06:28:51.661Z,4.13
2022-09-18T06:31:18.720Z,3.90
2022-09-18T06:34:02.855Z,3.03
2022-09-18T06:36:29.915Z,3.57
2022-09-18T06:39:04.117Z,4.33
2022-09-18T06:41:32.473Z,3.37
2022-09-18T06:44:04.038Z,3.10
2022-09-18T06:46:39.088Z,3.20
2022-09-18T06:49:24.769Z,2.97
2022-09-18T06:51:51.835Z,3.40
2022-09-18T06:54:18.974Z,4.20
2022-09-18T06:56:47.042Z,2.90
2022-09-18T06:59:15.730Z,3.23
2022-09-18T07:01:42.721Z,2.93
2022-09-18T07:04:16.243Z,2.83
2022-09-18T07:06:46.164Z,3.60
2022-09-18T07:09:14.454Z,2.57
2022-09-18T07:11:53.234Z,2.20
2022-09-18T07:14:26.475Z,2.70
2022-09-18T07:16:57.378Z,2.27
2022-09-18T07:19:24.514Z,2.60
2022-09-18T07:21:52.626Z,2.27
2022-09-18T07:24:19.862Z,2.50
2022-09-18T07:26:46.997Z,2.27
2022-09-18T07:29:14.056Z,2.93
2022-09-18T07:31:41.339Z,2.27
2022-09-18T07:34:10.856Z,2.30
2022-09-18T07:36:37.926Z,1.97
2022-09-18T07:39:05.363Z,2.27
2022-09-18T07:41:43.824Z,2.07
2022-09-18T07:44:11.203Z,2.20
2022-09-18T07:46:38.445Z,2.47
2022-09-18T07:49:08.002Z,2.13
2022-09-18T07:51:37.171Z,2.07
2022-09-18T07:54:04.960Z,2.00
2022-09-18T07:56:47.843Z,1.97
2022-09-18T07:59:20.226Z,1.90
2022-09-18T08:01:55.889Z,2.70
2022-09-18T08:04:24.998Z,2.20
2022-09-18T08:07:13.963Z,1.67
2022-09-18T08:09:53.098Z,2.17
2022-09-18T08:12:47.800Z,1.50
2022-09-18T08:15:46.994Z,1.83
2022-09-18T08:18:46.739Z,1.70
2022-09-18T08:21:32.854Z,1.90
2022-09-18T08:24:03.233Z,1.80
2022-09-18T08:26:30.349Z,1.83
2022-09-18T08:28:57.734Z,1.20
2022-09-18T08:31:25.546Z,1.50
2022-09-18T08:33:56.095Z,1.67
2022-09-18T08:36:23.167Z,1.47
2022-09-18T08:39:10.286Z,1.40
2022-09-18T08:42:03.388Z,1.90
2022-09-18T08:45:03.944Z,1.73
2022-09-18T08:47:44.431Z,2.00
2022-09-18T08:50:28.130Z,2.13
2022-09-18T08:53:04.061Z,1.80
2022-09-18T08:55:59.550Z,1.90
2022-09-18T08:58:56.374Z,1.43
2022-09-18T09:01:32.836Z,1.53
2022-09-18T09:04:17.417Z,2.03
2022-09-18T09:07:10.753Z,1.67
2022-09-18T09:09:58.372Z,1.23
2022-09-18T09:12:45.223Z,1.50
2022-09-18T09:15:29.223Z,1.50
2022-09-18T09:18:18.012Z,1.30
2022-09-18T09:20:55.366Z,1.70
2022-09-18T09:23:39.375Z,1.70
2022-09-18T09:26:22.932Z,1.70
2022-09-18T09:29:29.155Z,1.30
2022-09-18T09:32:22.363Z,1.50
2022-09-18T09:35:27.654Z,1.70
2022-09-18T09:38:28.247Z,1.50
2022-09-18T09:40:59.520Z,1.70
2022-09-18T09:43:37.459Z,1.90
2022-09-18T09:46:31.918Z,1.70
2022-09-18T09:49:12.786Z,1.23
2022-09-18T09:52:09.512Z,1.60
2022-09-18T09:54:38.116Z,1.30
2022-09-18T09:57:23.929Z,1.40
2022-09-18T10:00:12.854Z,1.83
2022-09-18T10:03:04.331Z,1.40
2022-09-18T10:05:53.512Z,2.20
2022-09-18T10:09:03.285Z,1.33
2022-09-18T10:11:35.412Z,1.50
2022-09-18T10:14:09.776Z,1.20
2022-09-18T10:16:42.858Z,1.47
2022-09-18T10:19:17.339Z,1.67
2022-09-18T10:21:45.594Z,1.77
2022-09-18T10:24:34.387Z,1.30
2022-09-18T10:27:12.630Z,1.37
2022-09-18T10:29:41.646Z,1.40
2022-09-18T10:32:13.902Z,1.10
2022-09-18T10:34:49.585Z,1.13
2022-09-18T10:37:28.845Z,1.30
2022-09-18T10:40:01.896Z,1.40
2022-09-18T10:42:34.552Z,1.40
2022-09-18T10:45:24.814Z,1.70
2022-09-18T10:48:07.781Z,1.03
2022-09-18T10:50:37.414Z,1.30
2022-09-18T10:53:29.843Z,1.00
2022-09-18T10:56:10.336Z,1.43
2022-09-18T10:58:37.395Z,1.40
2022-09-18T11:01:07.956Z,1.30
2022-09-18T11:03:39.956Z,1.10
2022-09-18T11:06:27.679Z,1.10
2022-09-18T11:09:01.251Z,1.10
2022-09-18T11:11:34.872Z,0.90
2022-09-18T11:14:30.522Z,1.17
2022-09-18T11:17:04.780Z,0.90
2022-09-18T11:19:39.324Z,1.07
2022-09-18T11:22:41.614Z,1.10
2022-09-18T11:25:29.579Z,1.10
2022-09-18T11:28:23.381Z,1.00
2022-09-18T11:30:58.425Z,1.10
2022-09-18T11:33:31.033Z,1.57
2022-09-18T11:36:04.503Z,1.17
2022-09-18T11:38:39.127Z,1.17
2022-09-18T11:41:06.216Z,1.10
2022-09-18T11:43:43.712Z,1.30
2022-09-18T11:46:33.049Z,1.13
2022-09-18T11:49:04.820Z,1.20
2022-09-18T11:51:39.867Z,1.33
2022-09-18T11:54:22.655Z,0.90
2022-09-18T11:56:55.359Z,1.10
2022-09-18T11:59:30.219Z,1.10
2022-09-18T12:02:22.643Z,1.00
2022-09-18T12:05:08.195Z,1.10
2022-09-18T12:07:54.225Z,0.90
2022-09-18T12:11:11.513Z,1.03
2022-09-18T12:14:16.588Z,1.20
2022-09-18T12:17:00.921Z,1.20
2022-09-18T12:19:48.413Z,1.23
2022-09-18T12:22:34.391Z,1.10
2022-09-18T12:25:11.463Z,1.30
2022-09-18T12:28:41.993Z,0.97
2022-09-18T12:31:30.192Z,1.00
2022-09-18T12:34:08.866Z,0.97
2022-09-18T12:37:00.193Z,1.00
2022-09-18T12:40:01.115Z,1.10
2022-09-18T12:42:38.558Z,1.27
2022-09-18T12:45:29.996Z,0.97
2022-09-18T12:48:19.036Z,1.00
2022-09-18T12:51:01.358Z,1.30
2022-09-18T12:53:56.587Z,1.20
2022-09-18T12:56:39.724Z,0.93
2022-09-18T12:59:27.923Z,1.00
2022-09-18T13:01:57.985Z,1.13
2022-09-18T13:04:35.214Z,1.00
2022-09-18T13:07:12.054Z,0.80
2022-09-18T13:09:49.119Z,0.97
2022-09-18T13:12:38.377Z,1.00
2022-09-18T13:15:17.139Z,1.10
2022-09-18T13:17:51.224Z,1.13
2022-09-18T13:20:27.347Z,1.10
2022-09-18T13:22:54.868Z,1.30
2022-09-18T13:25:36.762Z,1.13
2022-09-18T13:28:08.139Z,1.17
2022-09-18T13:30:35.242Z,0.87
2022-09-18T13:33:02.792Z,1.40
2022-09-18T13:35:35.365Z,1.20
2022-09-18T13:38:05.414Z,1.10
2022-09-18T13:40:37.647Z,1.10
2022-09-18T13:43:22.229Z,1.00
2022-09-18T13:45:50.207Z,0.80
2022-09-18T13:48:27.011Z,0.70
2022-09-18T13:51:23.605Z,0.90
2022-09-18T13:54:19.354Z,1.07
2022-09-18T13:57:14.787Z,0.93
2022-09-18T13:59:45.999Z,1.03
2022-09-18T14:02:37.118Z,1.17
2022-09-18T14:05:29.613Z,1.00
2022-09-18T14:08:28.409Z,0.80
2022-09-18T14:11:20.878Z,0.90
2022-09-18T14:14:00.271Z,1.00
2022-09-18T14:16:38.840Z,0.93
2022-09-18T14:19:31.966Z,1.00
2022-09-18T14:22:00.523Z,0.93
2022-09-18T14:24:46.171Z,0.80
2022-09-18T14:27:37.862Z,0.90
2022-09-18T14:30:26.952Z,0.73
2022-09-18T14:33:20.583Z,0.83
2022-09-18T14:36:04.768Z,1.20
2022-09-18T14:38:37.811Z,1.17
2022-09-18T14:41:28.521Z,1.00
2022-09-18T14:44:02.974Z,1.23
2022-09-18T14:46:32.375Z,0.97
2022-09-18T14:49:01.942Z,0.97
2022-09-18T14:51:44.822Z,1.20
2022-09-18T14:54:23.843Z,0.80
2022-09-18T14:56:56.498Z,1.00
2022-09-18T14:59:24.762Z,0.90
2022-09-18T15:01:52.547Z,0.90
2022-09-18T15:04:25.984Z,1.33
2022-09-18T15:06:54.971Z,1.10
2022-09-18T15:09:33.391Z,1.17
2022-09-18T15:12:02.968Z,1.10
2022-09-18T15:14:42.772Z,1.27
2022-09-18T15:17:20.695Z,1.20
2022-09-18T15:20:09.407Z,1.10
2022-09-18T15:22:36.575Z,1.50
2022-09-18T15:25:04.128Z,1.00
2022-09-18T15:27:32.171Z,1.13
2022-09-18T15:30:09.719Z,1.37
2022-09-18T15:32:41.213Z,1.17
2022-09-18T15:35:16.462Z,1.20
2022-09-18T15:37:54.478Z,1.23
2022-09-18T15:40:27.880Z,0.87
2022-09-18T15:42:59.398Z,0.93
2022-09-18T15:45:29.185Z,1.20
2022-09-18T15:47:59.015Z,1.40
2022-09-18T15:50:31.774Z,1.60
2022-09-18T15:52:58.816Z,1.10
2022-09-18T15:55:29.708Z,1.73
2022-09-18T15:58:04.305Z,1.70
2022-09-18T16:00:34.751Z,2.87
2022-09-18T16:03:17.859Z,3.60
2022-09-18T16:06:06.385Z,1.80
2022-09-18T16:08:36.991Z,3.50
2022-09-18T16:11:06.463Z,1.87
2022-09-18T16:13:38.993Z,2.57
2022-09-18T16:16:11.311Z,2.70
2022-09-18T16:18:56.266Z,2.00
2022-09-18T16:21:26.011Z,1.70
2022-09-18T16:24:01.423Z,1.20
2022-09-18T16:26:35.287Z,1.33
2022-09-18T16:29:35.483Z,1.40
2022-09-18T16:32:02.793Z,1.50
2022-09-18T16:34:30.008Z,1.63
2022-09-18T16:36:57.113Z,1.70
2022-09-18T16:39:25.935Z,1.50
2022-09-18T16:41:53.770Z,1.37
2022-09-18T16:44:20.746Z,2.10
2022-09-18T16:46:52.522Z,1.50
2022-09-18T16:49:22.666Z,1.67
2022-09-18T16:51:49.618Z,1.80
2022-09-18T16:54:16.586Z,1.80
2022-09-18T16:56:51.832Z,2.20
2022-09-18T16:59:25.225Z,1.30
2022-09-18T17:02:03.751Z,1.43
2022-09-18T17:04:31.903Z,1.70
2022-09-18T17:06:58.851Z,1.30
2022-09-18T17:09:25.801Z,1.27
2022-09-18T17:11:54.308Z,1.40
2022-09-18T17:14:22.218Z,1.30
2022-09-18T17:16:49.470Z,1.60
2022-09-18T17:19:16.569Z,1.67
2022-09-18T17:21:43.653Z,2.00
2022-09-18T17:24:10.921Z,2.13
2022-09-18T17:26:39.909Z,1.70
2022-09-18T17:29:07.273Z,2.10
2022-09-18T17:31:34.427Z,1.70
2022-09-18T17:34:01.441Z,1.60
2022-09-18T17:36:28.929Z,1.50
2022-09-18T17:38:59.438Z,1.40
2022-09-18T17:41:28.963Z,1.40
2022-09-18T17:43:55.931Z,1.57
2022-09-18T17:46:22.977Z,2.27
2022-09-18T17:48:54.137Z,1.70
2022-09-18T17:51:21.874Z,1.90
2022-09-18T17:53:56.251Z,2.20
2022-09-18T17:56:29.797Z,1.90
2022-09-18T17:59:00.029Z,1.87
2022-09-18T18:01:28.572Z,2.60
2022-09-18T18:03:57.278Z,2.90
2022-09-18T18:06:24.547Z,2.30
2022-09-18T18:08:56.123Z,2.70
2022-09-18T18:11:25.331Z,3.00
2022-09-18T18:13:54.327Z,2.63
2022-09-18T18:16:27.473Z,2.97
2022-09-18T18:18:57.199Z,3.10
2022-09-18T18:21:25.127Z,3.00
2022-09-18T18:24:13.316Z,2.90
2022-09-18T18:26:40.425Z,3.23
2022-09-18T18:29:10.733Z,3.43
2022-09-18T18:31:40.616Z,5.27
2022-09-18T18:34:10.754Z,6.53
2022-09-18T18:36:39.822Z,7.47
2022-09-18T18:39:11.956Z,7.47
2022-09-18T18:41:39.719Z,7.67
2022-09-18T18:44:07.362Z,7.73
2022-09-18T18:46:36.705Z,5.30
2022-09-18T18:49:15.117Z,4.70
2022-09-18T18:51:47.730Z,3.60
2022-09-18T18:54:17.663Z,3.80
2022-09-18T18:56:45.882Z,3.07
2022-09-18T18:59:15.514Z,4.23
2022-09-18T19:01:43.385Z,3.47
2022-09-18T19:04:15.557Z,3.20
2022-09-18T19:06:44.042Z,3.17
2022-09-18T19:09:20.292Z,2.70
2022-09-18T19:11:50.448Z,2.30
2022-09-18T19:14:23.437Z,2.00
2022-09-18T19:16:51.498Z,2.57
2022-09-18T19:19:21.090Z,2.60
2022-09-18T19:21:48.401Z,2.80
2022-09-18T19:24:18.475Z,2.70
2022-09-18T19:26:47.089Z,2.23
2022-09-18T19:29:17.220Z,2.47
2022-09-18T19:31:45.910Z,2.43
2022-09-18T19:34:18.924Z,2.50
2022-09-18T19:36:50.546Z,2.40
2022-09-18T19:39:20.828Z,2.17
2022-09-18T19:41:59.385Z,2.67
2022-09-18T19:44:41.809Z,2.13
2022-09-18T19:47:20.954Z,2.60
2022-09-18T19:49:49.820Z,2.47
2022-09-18T19:52:20.220Z,2.57
2022-09-18T19:54:48.647Z,2.83
2022-09-18T19:57:16.067Z,2.77
2022-09-18T19:59:43.675Z,3.20
2022-09-18T20:02:13.813Z,2.57
2022-09-18T20:04:41.387Z,2.90
2022-09-18T20:07:08.755Z,5.27
2022-09-18T20:09:35.905Z,3.77
2022-09-18T20:12:03.635Z,3.20
2022-09-18T20:14:30.785Z,3.73
2022-09-18T20:19:37.038Z,3.33
2022-09-18T20:22:04.130Z,3.90
2022-09-18T20:24:32.034Z,3.07
2022-09-18T20:26:59.787Z,5.73
2022-09-18T20:29:27.496Z,4.33
2022-09-18T20:31:54.813Z,4.53
2022-09-18T20:34:23.330Z,4.40
2022-09-18T20:36:52.323Z,3.27
2022-09-18T20:39:19.460Z,3.63
2022-09-18T20:41:47.851Z,3.00
2022-09-18T20:44:15.518Z,4.50
2022-09-18T20:46:43.073Z,3.03
2022-09-18T20:49:12.781Z,2.77
2022-09-18T20:51:39.745Z,2.97
2022-09-18T20:54:09.979Z,2.90
2022-09-18T20:56:43.375Z,3.87
2022-09-18T20:59:18.751Z,5.60
2022-09-18T21:01:47.236Z,4.43
2022-09-18T21:04:20.086Z,3.80
2022-09-18T21:06:55.265Z,2.70
2022-09-18T21:09:24.743Z,3.00
2022-09-18T21:11:52.089Z,2.83
2022-09-18T21:14:20.953Z,2.50
2022-09-18T21:16:48.124Z,2.47
2022-09-18T21:19:19.389Z,3.00
2022-09-18T21:21:48.135Z,2.57
2022-09-18T21:24:16.355Z,2.80
2022-09-18T21:26:46.026Z,2.93
2022-09-18T21:29:20.607Z,3.47
2022-09-18T21:31:50.575Z,3.07
2022-09-18T21:34:24.533Z,2.90
2022-09-18T21:37:03.077Z,3.27
2022-09-18T21:39:31.164Z,2.60
2022-09-18T21:42:00.549Z,2.77
2022-09-18T21:44:30.115Z,2.90
2022-09-18T21:47:03.019Z,2.57
2022-09-18T21:49:31.310Z,2.67
2022-09-18T21:52:01.195Z,3.03
2022-09-18T21:54:28.446Z,1.90
2022-09-18T21:56:56.623Z,1.83
2022-09-18T21:59:25.489Z,1.40
2022-09-18T22:01:55.261Z,1.27
2022-09-18T22:04:30.726Z,0.97
2022-09-18T22:07:00.283Z,1.07
2022-09-18T22:09:31.313Z,0.80
2022-09-18T22:12:01.308Z,0.60
2022-09-18T22:14:32.359Z,0.70
2022-09-18T22:17:05.533Z,0.40
2022-09-18T22:19:34.781Z,0.60
2022-09-18T22:22:04.134Z,0.60
2022-09-18T22:24:31.205Z,0.40
2022-09-18T22:27:00.931Z,0.60
2022-09-18T22:29:30.391Z,0.60
2022-09-18T22:31:59.641Z,0.53
2022-09-18T22:34:29.105Z,0.50
2022-09-18T22:36:57.631Z,0.47
2022-09-18T22:39:24.938Z,0.50
2022-09-18T22:41:52.927Z,0.60
2022-09-18T22:44:21.813Z,0.30
2022-09-18T22:46:51.981Z,0.57
2022-09-18T22:49:21.402Z,0.30
2022-09-18T22:51:50.010Z,0.40
2022-09-18T22:54:17.858Z,0.40
2022-09-18T22:56:49.961Z,0.50
2022-09-18T22:59:18.939Z,0.70
2022-09-18T23:01:48.894Z,0.70
2022-09-18T23:04:21.144Z,0.60
2022-09-18T23:06:49.500Z,1.53
2022-09-18T23:09:18.394Z,0.80
2022-09-18T23:11:47.862Z,0.60
2022-09-18T23:14:18.630Z,0.67
2022-09-18T23:16:46.223Z,0.50
2022-09-18T23:19:34.096Z,0.60
2022-09-18T23:22:02.399Z,0.63
2022-09-18T23:24:29.530Z,0.77
2022-09-18T23:26:58.291Z,0.70
2022-09-18T23:29:26.698Z,0.70
2022-09-18T23:31:55.205Z,0.60
2022-09-18T23:34:25.132Z,0.73
2022-09-18T23:36:54.635Z,0.67
2022-09-18T23:39:24.574Z,0.80
2022-09-18T23:41:52.360Z,0.70
2022-09-18T23:44:21.982Z,0.67
2022-09-18T23:46:49.421Z,0.63
2022-09-18T23:49:23.732Z,1.10
2022-09-18T23:51:52.891Z,0.97
2022-09-18T23:54:25.441Z,0.97
2022-09-18T23:56:53.452Z,0.93
2022-09-18T23:59:23.246Z,1.30
